Regional Weather

 

KCRX - Corinth, Mississippi, USA
Distance from station: SW 29mi, 47km
Updated: Fri, 31-Mar-2023 10:15am CDT
Mostly cloudy
Mostly cloudy
 Wind from S
Wind: S 14 mph , 22 km/h, Gust: 20 mph , 31 km/h
Temperature: 63°F , 17°C
Dew Point: 57°F , 14°C
Humidity: 83%
Barometer: 30.01 inHg , 1016.3 hPa
Clouds: Mostly cloudy
Visibility: 9 miles , 14 km
Cloud details: Few Clouds 1700 ft
Few Clouds 4500 ft
Mostly cloudy 11000 ft
2023/03/31 15:15 KCRX 311515Z AUTO 17012G17KT 9SM FEW017 FEW045 BKN110 17/14 A3001 RMK AO2
KMKL - Jackson, Tennessee, USA
Distance from station: NW 46mi, 73km
Updated: Fri, 31-Mar-2023 10:10am CDT
Nearby thunderstorm, Clear
Nearby thunderstorm, Clear
 Wind from SSW
Wind: SSW 14 mph , 22 km/h, Gust: 23 mph , 37 km/h
Temperature: 64°F , 18°C
Dew Point: 52°F , 11°C
Humidity: 64%
Barometer: 29.97 inHg , 1014.9 hPa
Summary: Nearby Thunderstorm
Clouds: Clear
Visibility: 10 miles , 16 km
2023/03/31 15:10 KMKL 311510Z 20012G20KT 10SM VCTS CLR 18/11 A2997 RMK AO2 LTG DSNT SW T01830106
 
KMSL - Muscle Shoal, Alabama, USA
Distance from station: SE 49mi, 79km
Updated: Fri, 31-Mar-2023 9:53am CDT
Overcast
Overcast
 Wind from S
Wind: S 10 mph , 17 km/h
Temperature: 64°F , 18°C
Dew Point: 57°F , 14°C
Humidity: 78%
Barometer: 30.06 inHg , 1017.9 hPa
Clouds: Overcast
Visibility: 10 miles , 16 km
Cloud details: Partly cloudy 1700 ft
Mostly cloudy 8000 ft
Overcast 11000 ft
2023/03/31 14:53 KMSL 311453Z AUTO 18009KT 10SM SCT017 BKN080 OVC110 18/14 A3006 RMK AO2 RAB12E32 SLP177 P0000 60000 T01780144 55005
KTUP - Tupelo, Mississippi, USA
Distance from station: SSW 72mi, 117km
Updated: Fri, 31-Mar-2023 10:05am CDT
Mostly cloudy
Mostly cloudy
 Wind from SSE
Wind: SSE 13 mph , 20 km/h, Gust: 18 mph , 30 km/h
Temperature: 64°F , 18°C
Dew Point: 57°F , 14°C
Humidity: 78%
Barometer: 30.03 inHg , 1016.9 hPa
Clouds: Mostly cloudy
Visibility: 10 miles , 16 km
Cloud details: Partly cloudy 1300 ft
Mostly cloudy 1800 ft
2023/03/31 15:05 KTUP 311505Z 16011G16KT 10SM SCT013 BKN018 18/14 A3003 RMK AO2 T01830144 $
 
KHSV - Huntsville, Alabama, USA
Distance from station: ESE 92mi, 148km
Updated: Fri, 31-Mar-2023 9:53am CDT
Rain, Mist, Overcast
Rain, Mist, Overcast
 Wind from S
Wind: S 17 mph , 28 km/h
Temperature: 61°F , 16°C
Dew Point: 57°F , 14°C
Humidity: 88%
Barometer: 30.08 inHg , 1018.6 hPa
Summary: Rain, Mist
Clouds: Overcast
Visibility: 4 miles , 6 km
Cloud details: Few Clouds 5500 ft
Partly cloudy 7500 ft
Overcast 10000 ft
2023/03/31 14:53 KHSV 311453Z 17015KT 4SM RA BR FEW055 SCT075 OVC100 16/14 A3008 RMK AO2 PK WND 17026/1431 SLP184 P0008 60008 T01560139 58012 $
KBNA - Nashville, TN, USA
Distance from station: NE 97mi, 157km
Updated: Fri, 31-Mar-2023 9:53am CDT
Overcast
Overcast
 Wind from S
Wind: S 23 mph , 37 km/h, Gust: 36 mph , 57 km/h
Temperature: 64°F , 18°C
Dew Point: 48°F , 9°C
Humidity: 56%
Barometer: 30.00 inHg , 1015.9 hPa
Clouds: Overcast
Visibility: 10 miles , 16 km
Cloud details: Mostly cloudy 4500 ft
Overcast 10000 ft
2023/03/31 14:53 KBNA 311453Z 19020G31KT 10SM BKN045 OVC100 18/09 A3000 RMK AO2 PK WND 18036/1423 LTG DSNT N RAB09E26 SLP155 P0000 60000 T01830094 56016 $
 
KMEM - Memphis, Tennessee, USA
Distance from station: W 99mi, 159km
Updated: Fri, 31-Mar-2023 9:54am CDT
Overcast
Overcast
 Wind from S
Wind: S 15 mph , 24 km/h, Gust: 24 mph , 39 km/h
Temperature: 68°F , 20°C
Dew Point: 55°F , 13°C
Humidity: 64%
Barometer: 29.94 inHg , 1013.9 hPa
Clouds: Overcast
Visibility: 10 miles , 16 km
Cloud details: Overcast 2400 ft
2023/03/31 14:54 KMEM 311454Z 19013G21KT 10SM OVC024 20/13 A2994 RMK AO2 LTG DSNT SE RAB26E44 SLP137 P0000 60000 T02000128 58002
KCKV - Clarksville, TN, USA
Distance from station: NNE 99mi, 159km
Updated: Fri, 31-Mar-2023 9:52am CDT
Overcast
Overcast
 Wind from SE
Wind: SE 6 mph , 9 km/h
Temperature: 57°F , 14°C
Dew Point: 54°F , 12°C
Humidity: 88%
Barometer: 29.97 inHg , 1014.9 hPa
Clouds: Overcast
Visibility: 9 miles , 14 km
Cloud details: Overcast 3500 ft
2023/03/31 14:52 KCKV 311452Z AUTO 14005KT 9SM OVC035 14/12 A2997 RMK AO2 LTG DSNT NE-S RAE28 TSE15 SLP144 P0007 60040 T01440122 56006 $
 
KCHA - Chattanooga, TN, USA
Distance from station: E 165mi, 265km
Updated: Fri, 31-Mar-2023 9:53am CDT
Mostly cloudy
Mostly cloudy
 Wind from S
Wind: S 12 mph , 19 km/h, Gust: 17 mph , 28 km/h
Temperature: 64°F , 18°C
Dew Point: 50°F , 10°C
Humidity: 60%
Barometer: 30.17 inHg , 1021.7 hPa
Clouds: Mostly cloudy
Visibility: 10 miles , 16 km
Cloud details: Partly cloudy 12000 ft
Partly cloudy 17000 ft
Mostly cloudy 23000 ft
2023/03/31 14:53 KCHA 311453Z 17010G15KT 10SM SCT120 SCT170 BKN230 18/10 A3017 RMK AO2 SLP214 T01780100 50002
KTYS - Knoxville, TN, USA
Distance from station: E 234mi, 377km
Updated: Fri, 31-Mar-2023 9:53am CDT
Overcast
Overcast
 Wind from calm
Wind: Calm
Temperature: 57°F , 14°C
Dew Point: 48°F , 9°C
Humidity: 72%
Barometer: 30.15 inHg , 1021 hPa
Clouds: Overcast
Visibility: 10 miles , 16 km
Cloud details: Overcast 9500 ft
2023/03/31 14:53 KTYS 311453Z 00000KT 10SM OVC095 14/09 A3015 RMK AO2 RAE12 SLP206 P0001 60004 T01390089 58005

Refresh Page for latest data.